Casselman, Canada
Current Conditions -  °F | °C
As of 12:53 PM on Monday 22 Dec 2014 (Local Time) from KMSS Reporting Station
Haze Haze  
Wind Chill: 12°   Ceiling: 2800
Heat Index: 23°   Visibility: 6mi
Dew Point: 18°   Wind: 12mph
Humidity: 81%   Direction: 70°ENE
Pressure: 30.33"   Gusts: NA
Location:  45.3°N, 75.08°W
Report Text: KMSS 221753Z AUTO 07010KT 6SM HZ OVC028 M05/M08 A3033 RMK AO2 SLP279 T10501078 11050 21083 58022
Loading
Personal Weather Stations






























Interactive Weather Map New forecast layout! Learn more

10-Day Weather Forecast

Advertisements
Track Severe Weather on mobile